Portada
METAR-TAF:

METAR-TAF

Aeropuertos :

Indianápolis, Indiana, Estados Unidos

latitud: 40-01-50N, longitud: 086-15-05W, altitud: 281 m

Observación

El informe se hizo hace 34 minutos, a las 18:35 UTC
Viento 6 kt del oeste-suroeste
Temperatura 31°C
Humedad 59%
Presión 1025 hPa
Visibilidad: 16.1 km
Nubes dispersas a una altura de 3900 ft
Nubes dispersas a una altura de 7000 ft
Nubes dispersas a una altura de 9000 ft

METAR: KTYQ 191835Z AUTO 25006KT 10SM SCT039 SCT070 SCT090 31/22 A3026 RMK AO2 T03110219

Hora: 13:09 (19:09 UTC)


TAF: falta

Observaciones y pronósticos meteorológicos de más de 4000 aeropuertos (mensajes METAR y TAF).

Los puntos amarillos y rojos representan las estaciones disponibles.

Ponga el ratón en el punto deseado para ver el nombre de la estación.

Haga clic para ver las observaciones y los pronósticos meteorológicos.

Para cambiar el mapa : haga clic en los botones verdes con una cruz de color negro para hacer un zoom, en el botón verde con un guión para alejar o en las flechas verdes para mapas adyacentes.


METAR-TAF: